Pagrindinis puslapis
METAR-TAF:

METAR-TAF

Oro uostai :

Nanning, Kinija

platuma: 22-49N, ilguma: 108-21E, Aukštis: 73 m

Dabartinis oras

Ataskaita buvo paskelbta 43 minutes, ne 14:00 UTC
Vėjas 4 kt iš Šiaurės, svyruoja nuo Šiaurės Vakarų ir Šiaurės/Šiaurės Rytų
Temperatūra 10°C
Drėgmė 71%
Slėgis 1021 hPa
Matomumas 10 km arba daugiau
nėra debesų žemiau 1500 m ir nėra kamuolinių lietaus debesų

METAR: ZGNN 091400Z 35002MPS 310V020 CAVOK 10/05 Q1021 NOSIG

Laikas: 22:43 (14:43 UTC)

Prognozė

Ataskaita buvo paskelbta 5 valandos ir 38 minutes, ne 09:05 UTC
Prognozė galioja nuo 09 metu 12 UTC su 10 metu 12 UTC
Vėjas 6 kt iš Rytų/Šiaurės Rytų
Matomumas: 5000 m
rūkana

TAF: ZGNN 090905Z 0912/1012 06003MPS 5000 BR NSC TX23/1007Z TN08/0922Z

Orai ataskaitas ir orų prognozės (METAR, TAF).

turimą stotys yra geltonos ir raudonos taškus žemėlapyje.

Perkelti pele per norėdami pamatyti stoties vardą.

Tada spustelėkite, norėdami matyti oro stebėjimo ir prognozės.

Norėdami pakeisti žemėlapį: spustelėkite ant žalios mygtukų su juodo kryžiaus žemyn,; žalią mygtuką su brūkšneliu, jei norite nutolinti; arba žalių rodyklių gretimoms žemėlapius.


METAR-TAF: